Tiempo atmosférico en la estación meteorológica de Valencia Aeropuerto, València/Valencia (69 m.)



Fecha
DESCASC
Temp. máxima en grados centígrados (hora)
DESCASC
Temp. mínima en grados centígrados (hora)
DESCASC
Temp. media en grados centígrados
DESCASC
Racha de viento máxima en m/sg (hora)
DESCASC
Velocidad máxima media en intervalos de 10 minutos(hora)
DESCASC
Precipitaciones diarias en mm
DESCASC
Precipitaciones de 00:00 a 06:00 en mm
DESCASC
Precipitaciones de 06:00 a 12:00 en mm
DESCASC
Precipitaciones de 12:00 a 18:00 en mm
DESCASC
Precipitaciones de 18:00 a 24:00 en mm
DESCASC
22-08-2019 31 (16:10) 17.1 (07:40) 24.1 8.89 (15:40) 5.83 (16:40) 0 0 0 0 0
21-08-2019 27.2 (11:20) 21.4 (23:40) 24.3 10.83 (01:20) 6.11 (19:00) 0.6 0.3 0 0 0.3
20-08-2019 30.1 (12:30) 24.6 (07:10) 27.4 18.89 (15:50) 12.78 (15:50) 0 0 0 0 0
19-08-2019 31.3 (14:50) 23.5 (07:40) 27.4 10.83 (15:00) 6.94 (14:30) 0 0 0 0 0
18-08-2019 33.1 (13:10) 22.7 (00:00) 27.9 10.83 (20:50) 6.11 (20:30) 0 0 0 0 0
17-08-2019 31.6 (15:20) 21.8 (00:00) 26.7 8.89 (16:00) 6.11 (19:10) 0 0 0 0 0
16-08-2019 30.6 (15:30) 22.7 (00:00) 26.7 10.28 (19:50) 6.11 (15:40) 0 0 0 0 0
15-08-2019 31.3 (12:00) 20.9 (00:00) 26.1 11.67 (20:10) 6.39 (19:00) 0 0 0 0 0
14-08-2019 31.6 (17:10) 21 (00:00) 26.3 10.28 (13:40) 6.39 (13:50) 0 0 0 0 0
13-08-2019 28.5 (16:30) 23.4 (00:00) 25.9 9.17 (10:50) 5.83 (17:40) 0 0 0 0 0
12-08-2019 31 (12:50) 24.1 (00:00) 27.6 12.78 (15:00) 7.78 (14:50) 0 0 0 0 0
11-08-2019 33.6 (15:50) 26 (00:00) 29.8 9.17 (13:10) 6.39 (17:40) 0 0 0 0 0
10-08-2019 34.6 (11:10) 26.7 (00:00) 30.6 11.67 (14:20) 8.06 (14:30) 0 0 0 0 0
09-08-2019 42.4 (17:50) 20.9 (00:00) 31.7 16.39 (17:10) 9.72 (16:10) 0 0 0 0 0
08-08-2019 37.6 (13:00) 23.3 (00:00) 30.4 9.72 (15:00) 7.22 (16:00) 0 0 0 0 0
07-08-2019 37.4 (14:50) 22.8 (00:00) 30.1 11.39 (14:50) 8.33 (16:10) 0 0 0 0 0
06-08-2019 32.6 (15:30) 25.2 (00:00) 28.9 9.17 (17:00) 5.56 (17:50) 0 0 0 0 0
05-08-2019 32.3 (15:50) 22.2 (00:00) 27.3 8.33 (14:20) 5.83 (17:50) 0 0 0 0 0
04-08-2019 32.6 (15:30) 21.4 (00:00) 27 9.72 (20:50) 5.28 (19:10) 0 0 0 0 0
03-08-2019 31.5 (14:40) 21 (00:00) 26.3 9.17 (14:10) 6.11 (16:10) 0 0 0 0 0
02-08-2019 31.4 (15:30) 21.5 (00:00) 26.4 9.17 (16:40) 5.83 (14:30) 0 0 0 0 0
01-08-2019 30.1 (13:10) 20.3 (00:00) 25.2 9.17 (15:10) 5.83 (14:10) 0 0 0 0 0
31-07-2019 28.7 (17:00) 22.8 (00:00) 25.8 11.67 (12:00) 8.33 (11:50) 0.3 0 0 0.3 0
30-07-2019 30.3 (13:30) 21.9 (00:00) 26.1 11.67 (12:50) 7.78 (14:00) 0 0 0 0 0
29-07-2019 33.7 (18:00) 20.2 (00:00) 27 9.17 (14:10) 6.39 (14:30) 0 0 0 0 0
28-07-2019 31 (13:00) 21.4 (00:00) 26.2 10.83 (15:40) 7.78 (15:50) 0 0 0 0 0
27-07-2019 36.4 (16:50) 20.9 (00:00) 28.7 16.94 (17:30) 10.83 (16:10) 0 0 0 0 0
26-07-2019 32.1 (13:10) 21.8 (00:00) 26.9 13.33 (18:20) 8.89 (18:20) 0 0 0 0 0

Gráficas

Temp. máximas Temp. mínimas Temp. medias Precipitaciones Rachas de viento máximas Velocidades máximas media en intervalos de 10 minutos

Datos horarios

Fecha y hora oficial Temperatura (ºC) Velocidad del viento (km/h) Dirección del viento Racha (km/h) Dirección de racha Precipitación (mm) Presión (hPa) Tendencia (hPa) Humedad (%)
2019-08-24 23:00:00 25.3 0 Calma 9 Sudeste 0 1011.2 1.2 78
2019-08-24 22:00:00 25.8 6 Sudeste 13 Este 0 1010.9 0.7 75
2019-08-24 21:00:00 26.6 10 Sudeste 17 Sudeste 0 1010.3 -0.1 69
2019-08-24 20:00:00 28 13 Sudeste 21 Sudeste 0 1010 -0.6 60
2019-08-24 19:00:00 29.4 15 Sudeste 26 Este 0 1010.2 -0.6 49
2019-08-24 18:00:00 29.8 18 Este 30 Este 0 1010.4 -0.7 48
2019-08-24 17:00:00 30.5 18 Este 30 Sudeste 0 1010.6 -0.9 46
2019-08-24 16:00:00 31 19 Sudeste 30 Sudeste 0 1010.8 -1.1 38
2019-08-24 15:00:00 30.7 17 Sudeste 26 Sudeste 0 1011.1 -1 40
2019-08-24 14:00:00 30.6 15 Este 28 Sudeste 0 1011.5 -0.8 38
2019-08-24 13:00:00 30.4 14 Sudeste 22 Sudeste 0 1011.9 -0.3 37
2019-08-24 12:00:00 29.7 6 Este 13 Este 0 1012.1 -0.1 32
2019-08-24 11:00:00 28.3 4 Sur 13 Norte 0 1012.3 0.6 39
2019-08-24 10:00:00 25 5 Norte 9 Noroeste 0 1012.2 0.6 47
2019-08-24 09:00:00 21.5 3 Oeste 8 Sudoeste 0 1012.2 0.6 58
2019-08-24 08:00:00 18.2 6 Oeste 9 Noroeste 0 1011.7 0.1 71
2019-08-24 07:00:00 18.2 7 Oeste 11 Oeste 0 1011.6 -0.2 73
2019-08-24 06:00:00 18.7 8 Oeste 9 Oeste 0 1011.6 -0.3 77
2019-08-24 05:00:00 19.2 8 Noroeste 9 Noroeste 0 1011.6 -0.5 76
2019-08-24 04:00:00 20 8 Noroeste 11 Oeste 0 1011.8 -0.2 75
2019-08-24 03:00:00 20.5 5 Sudoeste 8 Sudoeste 0 1011.9 -0.1 76
2019-08-24 02:00:00 21.6 5 Noroeste 9 Noroeste 0 1012.1 0.1 80
2019-08-24 01:00:00 22.5 5 Noroeste 13 Noroeste 0 1012 0.2 81
2019-08-24 00:00:00 23.7 8 Noroeste 21 Noroeste 0 1012 0.9 77
2019-08-23 23:00:00 25.2 7 Nordeste 22 Nordeste 0 1012 1.2 74
2019-08-23 22:00:00 25.7 10 Este 24 Este 0 1011.8 1 71
2019-08-23 21:00:00 26.5 11 Sudeste 21 Sudeste 0 1011.1 0.1 61
2019-08-23 20:00:00 28.6 16 Sudeste 24 Sudeste 0 1010.8 -0.4 42
2019-08-23 19:00:00 29.5 18 Sudeste 28 Este 0 1010.8 -0.5 41
2019-08-23 18:00:00 30.6 19 Sudeste 30 Este 0 1011 -0.7 32
2019-08-23 17:00:00 31.2 21 Sudeste 32 Sudeste 0 1011.2 -0.9 29
2019-08-23 16:00:00 31.9 19 Sudeste 30 Sudeste 0 1011.3 -1.4 25
2019-08-23 15:00:00 31.9 18 Sudeste 30 Sudeste 0 1011.7 -1.4 28
2019-08-23 14:00:00 31.9 15 Sudeste 30 Sudeste 0 1012.1 -1.3 30
2019-08-23 13:00:00 31.9 9 Sudeste 21 Sudeste 0 1012.7 -0.8 28
2019-08-23 12:00:00 30.4 4 Este 13 Nordeste 0 1013.1 -0.4 28
2019-08-23 11:00:00 27.9 7 Noroeste 13 Noroeste 0 1013.4 0.2 38
2019-08-23 10:00:00 25 6 Norte 13 Norte 0 1013.5 0.7 51
2019-08-23 09:00:00 21.4 8 Oeste 11 Oeste 0 1013.5 0.8 62
2019-08-23 08:00:00 18.4 10 Oeste 13 Oeste 0 1013.2 0.3 76
2019-08-23 07:00:00 18.3 9 Oeste 15 Noroeste 0 1012.8 -0.4 78
2019-08-23 06:00:00 19.1 6 Oeste 18 Noroeste 0 1012.7 -0.8 74
2019-08-23 05:00:00 19.9 15 Noroeste 21 Noroeste 0 1012.9 -0.6 73
2019-08-23 04:00:00 20.4 14 Noroeste 18 Noroeste 0 1013.2 -0.1 74
2019-08-23 03:00:00 20.5 8 Noroeste 11 Noroeste 0 1013.5 0.1 83
2019-08-23 02:00:00 21.3 4 Oeste 11 Noroeste 0 1013.5 0.3 81
2019-08-23 01:00:00 22.7 9 Noroeste 11 Noroeste 0 1013.3 0.4 80
2019-08-23 00:00:00 23.8 6 Noroeste -- -- 0 1013.4 1 77
2019-08-22 23:00:00 24.8 3 Oeste 9 Norte 0 1013.2 1.2 77
2019-08-22 22:00:00 25.2 7 Este 15 Sudeste 0 1012.9 1 74
2019-08-22 21:00:00 25.8 10 Sudeste 18 Sudeste 0 1012.4 0.3 67
2019-08-22 20:00:00 27.2 15 Sudeste 24 Sudeste 0 1012 -0.2 53
2019-08-22 19:00:00 28.8 18 Sudeste 30 Este 0 1011.9 -0.3 32
2019-08-22 18:00:00 29.5 19 Sudeste 30 Sudeste 0 1012.1 -0.5 35
2019-08-22 17:00:00 30 21 Sudeste 32 Sudeste 0 1012.2 -0.5 32
2019-08-22 16:00:00 30.7 18 Sudeste -- -- -- 1012.2 -1 27
2019-08-22 15:00:00 30.4 17 Sudeste 30 Sudeste 0 1012.6 -1 33
2019-08-22 14:00:00 30.5 17 Este 30 Este 0 1012.7 -0.9 34
2019-08-22 13:00:00 29.7 11 Este 26 Este 0 1013.2 -0.1 34
2019-08-22 12:00:00 29 4 Este 21 Nordeste 0 1013.6 0.1 41
2019-08-22 11:00:00 26.7 4 Norte 21 Norte 0 1013.6 0.6 48
2019-08-22 10:00:00 23.4 15 Noroeste 21 Noroeste 0 1013.3 0.6 59
2019-08-22 09:00:00 20.6 15 Noroeste 22 Noroeste 0 1013.5 1.2 70
2019-08-22 08:00:00 17.6 5 Oeste 11 Oeste 0 1013 0.9 88
2019-08-22 07:00:00 17.6 8 Oeste 13 Oeste 0 1012.7 0.8 88
2019-08-22 06:00:00 17.8 6 Noroeste 13 Noroeste 0 1012.3 0.4 88
2019-08-22 05:00:00 18.3 8 Oeste 13 Noroeste 0 1012.1 0.1 89
2019-08-22 04:00:00 18.4 7 Oeste 15 Oeste 0 1011.9 -0.1 91
2019-08-22 03:00:00 19.1 11 Oeste 17 Oeste 0 1011.9 -0.4 92
2019-08-22 02:00:00 20.2 9 Sudoeste 15 Norte 0 1012 0.2 90
2019-08-22 01:00:00 21.1 8 Noroeste 21 Norte 0 1012 -0.4 87
2019-08-22 00:00:00 21.4 11 Noroeste 13 Noroeste 0 1012.3 -0.6 90
2019-08-21 23:00:00 21.8 11 Sudoeste 15 Sudoeste 0 1011.8 -0.3 88
2019-08-21 22:00:00 22 9 Noroeste 22 Noroeste 0 1012.4 0 91
2019-08-21 21:00:00 22.3 15 Noroeste 26 Noroeste 0 1012.9 1.4 89
2019-08-21 20:00:00 22.4 13 Noroeste 30 Norte 0.3 1012.1 0.2 88
2019-08-21 19:00:00 25.5 22 Noroeste 30 Noroeste 0 1012.4 0.1 68
2019-08-21 18:00:00 26.9 5 Norte 11 Norte 0 1011.5 -1.3 54
2019-08-21 17:00:00 27.1 6 Noroeste 13 Noroeste 0 1011.9 -1.5 54
2019-08-21 16:00:00 25.8 9 Sudeste 21 Sur 0 1012.3 -1.2 58
2019-08-21 15:00:00 25.5 18 Sudeste 26 Sur 0 1012.8 -0.7 63
2019-08-21 14:00:00 26 16 Sudeste 24 Este 0 1013.4 -0.1 63
2019-08-21 13:00:00 26.4 14 Este 26 Este 0 1013.5 -0.2 56
2019-08-21 12:00:00 26.5 18 Sudeste 30 Sudeste 0 1013.5 -0.2 56
2019-08-21 11:00:00 26.2 17 Este 26 Este 0 1013.5 0 59
2019-08-21 10:00:00 25.2 17 Este 26 Este 0 1013.7 0.3 66
2019-08-21 09:00:00 24.3 10 Nordeste 15 Nordeste 0 1013.7 0.3 75
2019-08-21 08:00:00 23.1 7 Nordeste 21 Nordeste 0 1013.5 0.1 82
2019-08-21 07:00:00 22.8 8 Nordeste 22 Nordeste 0 1013.4 -0.2 83
2019-08-21 06:00:00 22.3 9 Nordeste 15 Nordeste 0 1013.4 -0.1 88
2019-08-21 05:00:00 22.1 9 Norte 24 Nordeste 0.1 1013.4 -0.2 87
2019-08-21 04:00:00 22.9 17 Nordeste 28 Nordeste 0.2 1013.6 -0.1 83
2019-08-21 03:00:00 24.5 15 Nordeste 24 Norte 0 1013.5 -0.1 67
2019-08-21 02:00:00 24.3 14 Norte 39 Nordeste 0 1013.6 0.1 67
2019-08-21 01:00:00 24.6 15 Nordeste 30 Nordeste 0 1013.7 0.7 64
2019-08-21 00:00:00 24.8 21 Nordeste 30 Nordeste 0 1013.6 1.3 62
2019-08-20 23:00:00 25 20 Nordeste 33 Nordeste 0 1013.5 1.4 61
2019-08-20 22:00:00 24.9 19 Nordeste 37 Nordeste 0 1013 1.7 61
2019-08-20 21:00:00 25.1 22 Nordeste 41 Nordeste 0 1012.3 1.1 57
2019-08-20 20:00:00 25.2 30 Nordeste 50 Este 0 1012.1 0.8 57
2019-08-20 19:00:00 26.2 32 Nordeste 52 Este 0 1011.3 0.3 51
2019-08-20 18:00:00 26.3 33 Este 55 Nordeste 0 1011.2 0.5 51
2019-08-20 17:00:00 26.6 41 Nordeste 65 Nordeste 0 1011.3 1.2 49
2019-08-20 16:00:00 26.1 46 Nordeste 68 Este 0 1011 0.8 54
2019-08-20 15:00:00 27.1 37 Nordeste 58 Nordeste 0 1010.7 1.1 59
2019-08-20 14:00:00 28 35 Nordeste 58 Nordeste 0 1010.1 1.2 61
2019-08-20 13:00:00 26.9 37 Nordeste 48 Nordeste 0 1010.2 1.9 72
2019-08-20 12:00:00 29.5 22 Este 30 Este 0 1009.6 1.6 65
2019-08-20 11:00:00 28.9 16 Este 30 Este 0 1008.9 1.1 64
2019-08-20 10:00:00 28.3 13 Nordeste 22 Nordeste 0 1008.3 0.7 66
2019-08-20 09:00:00 26.4 10 Norte 17 Nordeste 0 1008 0.6 74
2019-08-20 08:00:00 24.8 4 Noroeste 13 Oeste 0 1007.8 0.4 80
2019-08-20 07:00:00 25.3 6 Oeste 21 Norte 0 1007.6 0.2 77
2019-08-20 06:00:00 25.4 9 Norte 13 Norte 0 1007.4 -0.4 76
2019-08-20 05:00:00 25.3 7 Norte 17 Norte 0 1007.4 -0.9 77
2019-08-20 04:00:00 25.4 12 Nordeste 24 Nordeste 0 1007.4 -0.9 80
2019-08-20 03:00:00 25.6 15 Nordeste 26 Nordeste 0 1007.8 -0.8 81
2019-08-20 02:00:00 25.7 17 Nordeste 26 Nordeste 0 1008.3 -0.3 82
2019-08-20 01:00:00 25.8 15 Nordeste 32 Nordeste 0 1008.3 0 83
2019-08-20 00:00:00 26.4 16 Nordeste 30 Nordeste 0 1008.6 0.8 81
2019-08-19 23:00:00 26.4 19 Nordeste 35 Nordeste 0 1008.6 1.1 81
2019-08-19 22:00:00 26.6 14 Nordeste 22 Este 0 1008.3 1.1 82
2019-08-19 21:00:00 26.8 15 Este 33 Nordeste 0 1007.8 0.5 79
2019-08-19 20:00:00 27.6 15 Este 30 Este 0 1007.5 0.1 75
2019-08-19 19:00:00 28.6 21 Este 33 Este 0 1007.2 -0.4 67
2019-08-19 18:00:00 29.2 22 Este 32 Este 0 1007.3 -0.5 70
2019-08-19 17:00:00 30.2 21 Este 35 Este 0 1007.4 -0.5 64
2019-08-19 16:00:00 30.5 21 Este 35 Este 0 1007.6 -0.6 62
2019-08-19 15:00:00 31 23 Este 39 Este 0 1007.8 -0.4 59
2019-08-19 14:00:00 30.7 22 Este 33 Este 0 1007.9 -0.2 58
2019-08-19 13:00:00 30.4 22 Este 33 Este 0 1008.2 0.7 57
2019-08-19 12:00:00 29.8 19 Este 30 Este 0 1008.2 1 62
2019-08-19 11:00:00 28.1 16 Nordeste 24 Este 0 1008.1 1.4 70
2019-08-19 10:00:00 26.6 11 Noroeste 17 Noroeste 0 1007.5 1.4 77
2019-08-19 09:00:00 24.4 12 Noroeste 18 Noroeste 0 1007.2 1.8 83
2019-08-19 08:00:00 23.5 13 Noroeste 17 Noroeste 0 1006.7 1.5 88
2019-08-19 07:00:00 23.9 4 Oeste 8 Norte 0 1006.1 1 89
2019-08-19 06:00:00 24.1 2 Noroeste 9 Noroeste 0 1005.4 0.4 89
2019-08-19 05:00:00 24.7 5 Oeste 13 Norte 0 1005.2 0.1 85
2019-08-19 04:00:00 25 5 Norte 8 Nordeste 0 1005.1 -0.1 86
2019-08-19 03:00:00 25.1 5 Oeste 13 Norte 0 1005 0.1 85
2019-08-19 02:00:00 26 8 Norte 11 Norte 0 1005.1 0.6 81
2019-08-19 01:00:00 26.5 9 Nordeste 17 Nordeste 0 1005.2 1.4 80
2019-08-19 00:00:00 26.5 12 Nordeste 21 Nordeste 0 1004.9 1.7 81
2019-08-18 23:00:00 26.9 14 Nordeste 24 Este 0 1004.5 1.8 80
2019-08-18 22:00:00 27.3 14 Nordeste 24 Este 0 1003.8 1.2 80
2019-08-18 21:00:00 27.7 16 Nordeste 39 Nordeste 0 1003.2 0.3 80
2019-08-18 20:00:00 29.1 19 Nordeste 26 Nordeste 0 1002.7 -0.2 76
2019-08-18 19:00:00 30.4 17 Nordeste 26 Nordeste 0 1002.6 -0.9 70
2019-08-18 18:00:00 31.4 17 Este 30 Este 0 1002.9 -1.1 63
2019-08-18 17:00:00 31.8 19 Sudeste 30 Este 0 1002.9 -1.6 59
2019-08-18 16:00:00 32 18 Este 32 Sudeste 0 1003.5 -1.3 57
2019-08-18 15:00:00 31.2 20 Este -- -- -- 1004 -1.4 62
2019-08-18 14:00:00 31.9 19 Este 28 Sudeste 0 1004.5 -1.1 57
2019-08-18 13:00:00 32.5 13 Sudeste 21 Sudeste 0 1004.8 -0.7 52
2019-08-18 12:00:00 31.6 9 Sudeste 18 Sudeste 0 1005.4 0.1 52
2019-08-18 11:00:00 28.9 5 Sudeste 21 Nordeste 0 1005.6 0.3 60
2019-08-18 10:00:00 26.6 7 Norte 18 Noroeste 0 1005.5 0.4 69
2019-08-18 09:00:00 24.5 12 Noroeste 17 Noroeste 0 1005.3 0.3 77
2019-08-18 08:00:00 22.9 12 Noroeste 17 Noroeste 0 1005.3 -0.1 86
2019-08-18 07:00:00 23.1 10 Noroeste 13 Noroeste 0 1005.1 -0.8 88
2019-08-18 06:00:00 23.6 8 Noroeste 11 Noroeste 0 1005 -1.2 86
2019-08-18 05:00:00 23.6 9 Noroeste 13 Noroeste 0 1005.4 -1.3 85
2019-08-18 04:00:00 24.4 11 Noroeste 15 Noroeste 0 1005.9 -0.9 82
2019-08-18 03:00:00 25.1 8 Norte 11 Norte 0 1006.2 -0.6 83
2019-08-18 02:00:00 25.6 8 Norte 13 Norte 0 1006.7 0.1 84
2019-08-18 01:00:00 25.6 9 Norte 17 Nordeste 0 1006.8 0.5 83
2019-08-18 00:00:00 26 12 Nordeste 21 Nordeste 0 1006.8 1.1 82
2019-08-17 23:00:00 26.2 14 Nordeste 26 Nordeste 0 1006.6 1.2 81
2019-08-17 22:00:00 26.4 15 Nordeste 28 Nordeste 0 1006.3 0.7 81
2019-08-17 21:00:00 26.8 19 Nordeste 30 Nordeste 0 1005.7 -0.3 78
2019-08-17 20:00:00 28 19 Nordeste 32 Este 0 1005.4 -0.6 73
2019-08-17 19:00:00 28.8 21 Este 30 Nordeste 0 1005.6 -0.9 72
2019-08-17 18:00:00 29.9 21 Este 32 Este 0 1006 -1.2 66
2019-08-17 17:00:00 31 20 Este 30 Este 0 1006 -1.6 62
2019-08-17 16:00:00 31.2 20 Sudeste 32 Este 0 1006.5 -1.6 55
2019-08-17 15:00:00 31.2 19 Este 28 Este 0 1007.2 -1.4 58
2019-08-17 14:00:00 31.2 17 Sudeste 28 Sudeste 0 1007.6 -1.3 58
2019-08-17 13:00:00 30.9 17 Sudeste 24 Sudeste 0 1008.1 -1 58
2019-08-17 12:00:00 30.2 8 Sudeste 18 Sudeste 0 1008.6 -0.4 56
2019-08-17 11:00:00 29 5 Este 13 Este 0 1008.9 0.1 59
2019-08-17 10:00:00 27 4 Noroeste 11 Norte 0 1009.1 0.8 69
2019-08-17 09:00:00 24.2 8 Noroeste 11 Norte 0 1009 1 79
2019-08-17 08:00:00 22.3 8 Noroeste 13 Noroeste 0 1008.8 0.7 87
2019-08-17 07:00:00 22.2 7 Noroeste 11 Noroeste 0 1008.3 0.1 88
2019-08-17 06:00:00 22.5 8 Noroeste 9 Noroeste 0 1008 -0.5 88
2019-08-17 05:00:00 22.8 -- -- -- -- 0 1008.1 -0.9 85
2019-08-17 04:00:00 23.3 3 Oeste 9 Oeste 0 1008.2 -1.3 85
2019-08-17 03:00:00 24.1 8 Oeste 13 Noroeste 0 1008.5 -1 82
2019-08-17 02:00:00 25.2 9 Norte 15 Noroeste 0 1009 -0.5 79
2019-08-17 01:00:00 25.3 10 Norte 30 Nordeste 0 1009.5 0.4 81
2019-08-17 00:00:00 25.6 11 Norte 21 Nordeste 0 1009.5 1.1 80
2019-08-16 23:00:00 26 14 Nordeste 26 Norte 0 1009.5 1.5 80
2019-08-16 22:00:00 26.3 18 Nordeste 24 Nordeste 0 1009.1 1.2 78
2019-08-16 21:00:00 26.5 17 Este 28 Nordeste 0 1008.4 0.3 76
2019-08-16 20:00:00 27.6 17 Este 37 Nordeste 0 1008 -0.8 71
2019-08-16 19:00:00 28.8 18 Sudeste 32 Sudeste 0 1007.9 -1.6 64
2019-08-16 18:00:00 29.4 19 Sudeste 32 Sudeste 0 1008.1 -1.8 59
2019-08-16 17:00:00 30.1 21 Sudeste 33 Este 0 1008.8 -1.4 60
2019-08-16 16:00:00 30.2 22 Sudeste 32 Sudeste 0 1009.5 -1.2 59
2019-08-16 15:00:00 29.9 19 Sudeste 30 Sudeste 0 1009.9 -1.3 60
2019-08-16 14:00:00 30.1 17 Este 30 Este 0 1010.2 -1.1 59
2019-08-16 13:00:00 29.7 14 Este 24 Este 0 1010.7 -0.7 63
2019-08-16 12:00:00 29 9 Este 22 Este 0 1011.2 0 63
2019-08-16 11:00:00 28.4 14 Nordeste 28 Nordeste 0 1011.3 0.2 65
2019-08-16 10:00:00 26.1 13 Norte 22 Noroeste 0 1011.4 0.8 68
2019-08-16 09:00:00 24 17 Noroeste 26 Noroeste 0 1011.2 0.8 69
2019-08-16 08:00:00 23 19 Noroeste 26 Noroeste 0 1011.1 0.5 73
2019-08-16 07:00:00 23 16 Noroeste 24 Norte 0 1010.6 -0.2 76
2019-08-16 06:00:00 23.4 14 Noroeste 18 Noroeste 0 1010.4 -0.6 75
2019-08-16 05:00:00 23.2 15 Noroeste 21 Noroeste 0 1010.6 -0.7 74
2019-08-16 04:00:00 23.3 14 Noroeste 21 Noroeste 0 1010.8 -0.5 78
2019-08-16 03:00:00 23.9 10 Noroeste 15 Noroeste 0 1011 -0.4 74
2019-08-16 02:00:00 25.3 9 Norte 18 Norte 0 1011.3 0 73
2019-08-16 01:00:00 25.5 10 Nordeste 17 Nordeste 0 1011.3 0.4 76
2019-08-16 00:00:00 25.5 10 Nordeste 21 Norte 0 1011.4 1.4 78
2019-08-15 23:00:00 26 12 Nordeste 21 Norte 0 1011.3 1.8 78
2019-08-15 22:00:00 26.2 14 Nordeste 30 Este 0 1010.9 1.9 75
2019-08-15 21:00:00 26.6 19 Nordeste 42 Nordeste 0 1010 0.8 71
2019-08-15 20:00:00 27.7 23 Este 33 Este 0 1009.5 0.4 66
2019-08-15 19:00:00 28.7 23 Este 32 Este 0 1009 -0.4 64
2019-08-15 18:00:00 30 19 Este 33 Este 0 1009.2 -0.7 57
2019-08-15 17:00:00 30.2 23 Sudeste 35 Sudeste 0 1009.1 -1.2 56
2019-08-15 16:00:00 31 21 Este 35 Este 0 1009.4 -1.3 56
2019-08-15 15:00:00 30.7 21 Este 33 Este 0 1009.9 -1.2 61
2019-08-15 14:00:00 31 19 Este 32 Este 0 1010.3 -0.8 60
2019-08-15 13:00:00 31 15 Este 28 Este 0 1010.7 -0.4 60
2019-08-15 12:00:00 31 7 Nordeste 15 Este 0 1011.1 -0.1 46
2019-08-15 11:00:00 29.7 4 Sudeste 18 Este 0 1011.1 0.2 51
2019-08-15 10:00:00 27.3 0 Calma 17 Norte 0 1011.1 0.8 59
2019-08-15 09:00:00 24.4 3 Noroeste 8 Norte 0 1011.2 1.3 68
2019-08-15 08:00:00 21.6 4 Oeste 9 Oeste 0 1010.9 0.9 78
2019-08-15 07:00:00 21.2 6 Oeste 9 Oeste 0 1010.3 0.4 82
2019-08-15 06:00:00 21.8 8 Noroeste 9 Noroeste 0 1009.9 -0.2 78
2019-08-15 05:00:00 22.5 8 Oeste 9 Oeste 0 1010 -0.5 75
2019-08-15 04:00:00 23.5 5 Norte 8 Norte 0 1009.9 -0.5 72
2019-08-15 03:00:00 23.4 5 Sudoeste 9 Sudoeste 0 1010.1 -0.5 75
2019-08-15 02:00:00 24.3 9 Sudoeste 11 Este 0 1010.5 0.1 73
2019-08-15 01:00:00 25.3 6 Este 13 Este 0 1010.4 0.6 78
2019-08-15 00:00:00 25.8 6 Este 9 Este 0 1010.6 1.4 65
2019-08-14 23:00:00 26.4 6 Norte 21 Noroeste 0 1010.4 1.7 62
2019-08-14 22:00:00 26.8 14 Nordeste 28 Nordeste 0 1009.8 1.2 68
2019-08-14 21:00:00 27.5 18 Nordeste 35 Nordeste 0 1009.2 0.7 70
2019-08-14 20:00:00 29.1 13 Este 30 Este 0 1008.7 0 60
2019-08-14 19:00:00 30.3 20 Este 32 Este 0 1008.6 -0.5 44
2019-08-14 18:00:00 30.8 21 Este 33 Este 0 1008.5 -1.2 46
2019-08-14 17:00:00 31.2 20 Este 32 Este 0 1008.7 -1.6 44
2019-08-14 16:00:00 30.8 19 Este 32 Este 0 1009.1 -1.7 51
2019-08-14 15:00:00 30.4 21 Sudeste 33 Este 0 1009.7 -1.7 50
2019-08-14 14:00:00 30.3 22 Sudeste 37 Sudeste 0 1010.3 -1.3 53
2019-08-14 13:00:00 30.6 14 Sudeste 24 Sudeste 0 1010.8 -1.3 49
2019-08-14 12:00:00 29.4 10 Este 18 Este 0 1011.4 -0.5 52
2019-08-14 11:00:00 28.6 8 Este 18 Nordeste 0 1011.6 -0.1 55
2019-08-14 10:00:00 26.9 2 Oeste 8 Oeste 0 1012.1 0.6 61
2019-08-14 09:00:00 23.9 6 Oeste 8 Oeste 0 1011.9 0.6 73
2019-08-14 08:00:00 21.5 5 Oeste -- -- 0 1011.7 0.4 85
2019-08-14 07:00:00 21.1 7 Oeste 11 Oeste 0 1011.5 -0.1 85
2019-08-14 06:00:00 22.1 9 Oeste 13 Oeste 0 1011.3 -0.5 81
2019-08-14 05:00:00 22.2 6 Noroeste 13 Noroeste 0 1011.3 -0.6 81
2019-08-14 04:00:00 22.7 10 Noroeste 15 Noroeste 0 1011.6 -0.7 80
2019-08-14 03:00:00 23.1 9 Noroeste 13 Noroeste 0 1011.8 -0.5 79
2019-08-14 02:00:00 23.9 8 Noroeste 13 Norte 0 1011.9 -0.2 75
2019-08-14 01:00:00 24.1 11 Noroeste 17 Norte 0 1012.3 0.9 75
2019-08-14 00:00:00 24.5 8 Noroeste 11 Noroeste 0 1012.3 1.5 74
2019-08-13 23:00:00 24.7 5 Este 13 Este 0 1012.1 1.7 71
2019-08-13 22:00:00 24.8 9 Este 18 Este 0 1011.4 1.2 69
2019-08-13 21:00:00 25 14 Sudeste 22 Sudeste 0 1010.8 0.8 70
2019-08-13 20:00:00 25.8 14 Sudeste 30 Este 0 1010.4 0 65
2019-08-13 19:00:00 26.8 19 Sudeste 30 Sudeste 0 1010.2 -0.6 61
2019-08-13 18:00:00 27.4 16 Sudeste 33 Sudeste 0 1010 -1.9 57
2019-08-13 17:00:00 27.4 18 Sudeste 32 Sudeste 0 1010.4 -1.6 54
2019-08-13 16:00:00 27.3 17 Este 30 Sudeste 0 1010.8 -1.5 55
2019-08-13 15:00:00 26.6 15 Sudeste 32 Este 0 1011.9 -0.7 56
2019-08-13 14:00:00 26.1 16 Este 30 Este 0 1012 -0.4 58
2019-08-13 13:00:00 25.9 20 Este 32 Este 0 1012.3 0.1 58
2019-08-13 12:00:00 26.1 17 Este 30 Este 0 1012.6 0.6 55
2019-08-13 11:00:00 26.4 16 Este 33 Este 0 1012.4 1.1 48
2019-08-13 10:00:00 25.6 10 Este 17 Este 0 1012.2 1.2 44
2019-08-13 09:00:00 25 8 Nordeste 17 Nordeste 0 1012 1 40
2019-08-13 08:00:00 24.5 9 Nordeste 21 Este 0 1011.3 0.2 39
2019-08-13 07:00:00 24.4 7 Nordeste 13 Nordeste 0 1011 -0.2 38
2019-08-13 06:00:00 23.6 4 Norte 11 Noroeste 0 1011 -0.4 55
2019-08-13 05:00:00 24.3 5 Norte 15 Nordeste 0 1011.1 -0.5 45
2019-08-13 04:00:00 24.6 8 Nordeste 15 Nordeste 0 1011.2 -0.4 44
2019-08-13 03:00:00 24.7 9 Nordeste 11 Nordeste 0 1011.4 0.1 64
2019-08-13 02:00:00 24.3 7 Norte 11 Norte 0 1011.6 0.8 73
2019-08-13 01:00:00 25 8 Norte 13 Nordeste 0 1011.6 1.6 70
2019-08-13 00:00:00 25.4 8 Nordeste 13 Norte 0 1011.3 2.1 70
2019-08-12 23:00:00 25.5 10 Este 22 Nordeste 0 1010.8 2.5 70
2019-08-12 22:00:00 25.6 10 Este 24 Este 0 1010 2 71
2019-08-12 21:00:00 26 15 Este 35 Este 0 1009.2 1 70
2019-08-12 20:00:00 26.6 14 Este 30 Este 0 1008.3 0.3 70
2019-08-12 19:00:00 27.4 19 Este 30 Este 0 1008 -0.4 64
2019-08-12 18:00:00 27.7 23 Este 32 Este 0 1008.2 -0.1 61
2019-08-12 17:00:00 29 23 Sudeste 35 Este 0 1008 -0.3 55
2019-08-12 16:00:00 29.2 26 Este 37 Este 0 1008.4 0 51
2019-08-12 15:00:00 30 28 Este 46 Este 0 1008.3 -0.1 43
2019-08-12 14:00:00 30.4 25 Este 39 Este 0 1008.3 0.3 35
2019-08-12 13:00:00 30.8 24 Este 37 Este 0 1008.4 0.7 33
2019-08-12 12:00:00 30.2 16 Este 26 Este 0 1008.4 1.3 38
2019-08-12 11:00:00 29.2 15 Este 24 Este 0 1008 1.7 42
2019-08-12 10:00:00 28.5 11 Este 18 Este 0 1007.7 2 45
2019-08-12 09:00:00 26 5 Oeste 13 Oeste 0 1007.1 1.8 64
2019-08-12 08:00:00 24.3 4 Oeste 9 Oeste 0 1006.3 1.2 72
2019-08-12 07:00:00 24.2 5 Oeste 8 Oeste 0 1005.7 0.6 85
2019-08-12 06:00:00 24.1 6 Noroeste 13 Noroeste 0 1005.3 -0.2 85
2019-08-12 05:00:00 24.3 6 Noroeste 13 Noroeste 0 1005.1 -0.7 87
2019-08-12 04:00:00 25.1 8 Noroeste 11 Noroeste 0 1005.1 -0.9 85
2019-08-12 03:00:00 25.3 9 Noroeste 11 Noroeste 0 1005.5 -0.4 87
2019-08-12 02:00:00 25.7 6 Oeste 8 Oeste 0 1005.8 -0.1 86
2019-08-12 01:00:00 26.6 2 Este 11 Sur 0 1006 0.7 85
2019-08-12 00:00:00 27 5 Este 22 Nordeste 0 1005.9 1.3 83
2019-08-11 23:00:00 27.3 10 Nordeste 18 Nordeste 0 1005.9 2 82
2019-08-11 22:00:00 27.6 12 Este 22 Nordeste 0 1005.3 1.5 82
2019-08-11 21:00:00 28 15 Este 28 Este 0 1004.6 0.7 79
2019-08-11 20:00:00 28.8 17 Este 28 Este 0 1003.9 -0.1 75
2019-08-11 19:00:00 30.8 19 Este 32 Este 0 1003.8 -0.2 63
2019-08-11 18:00:00 31.6 20 Sudeste 33 Este 0 1003.9 -0.5 60
2019-08-11 17:00:00 32.3 18 Sudeste 28 Sudeste 0 1004 -1.2 55
2019-08-11 16:00:00 33.4 23 Este 32 Este 0 1004 -1.8 49
2019-08-11 15:00:00 33 19 Sudeste 30 Este 0 1004.4 -2 54
2019-08-11 14:00:00 32.1 17 Sudeste 33 Este 0 1005.2 -1.5 57
2019-08-11 13:00:00 32.3 19 Sudeste 30 Sudeste 0 1005.8 -1.6 56
2019-08-11 12:00:00 32.1 10 Sur 18 Sur 0 1006.4 -0.6 53
2019-08-11 11:00:00 30.6 6 Este 15 Nordeste 0 1006.7 -0.4 60
2019-08-11 10:00:00 28.9 8 Sudeste 24 Nordeste 0 1007.4 0.9 67
2019-08-11 09:00:00 27.4 12 Nordeste 18 Nordeste 0 1007 0.3 75
2019-08-11 08:00:00 26.2 8 Nordeste 22 Norte 0 1007.1 0.3 82
2019-08-11 07:00:00 26.1 8 Nordeste 24 Nordeste 0 1006.5 -0.7 84
2019-08-11 06:00:00 26.3 13 Nordeste 21 Nordeste 0 1006.7 -0.9 85
2019-08-11 05:00:00 26.6 12 Nordeste 18 Este 0 1006.8 -1.1 85
2019-08-11 04:00:00 26.6 13 Este 18 Este 0 1007.2 -0.8 86
2019-08-11 03:00:00 26.5 12 Nordeste 18 Este 0 1007.6 -0.6 88
2019-08-11 02:00:00 26.6 9 Este 15 Nordeste 0 1007.9 -0.3 87
2019-08-11 01:00:00 26.8 11 Este 13 Este 0 1008 0.1 86
2019-08-11 00:00:00 27.1 9 Este 15 Este 0 1008.2 0.6 83
2019-08-10 23:00:00 27.5 9 Este 41 Nordeste 0 1008.2 0.9 80
2019-08-10 22:00:00 27.6 11 Este 24 Este 0 1007.9 0.5 78
2019-08-10 21:00:00 28.3 14 Este 32 Nordeste 0 1007.6 0 78
2019-08-10 20:00:00 29.5 13 Este 26 Este 0 1007.3 -0.7 74
2019-08-10 19:00:00 30.6 18 Este 28 Este 0 1007.4 -0.9 69
2019-08-10 18:00:00 31.4 19 Este 32 Este 0 1007.6 -1.1 66
2019-08-10 17:00:00 32.2 25 Este 39 Este 0 1008 -0.8 57
2019-08-10 16:00:00 32.6 27 Este 37 Nordeste 0 1008.3 -1 54
2019-08-10 15:00:00 32.8 28 Este 42 Este 0 1008.7 -0.6 53
2019-08-10 14:00:00 33 27 Este 37 Este 0 1008.8 -0.4 45
2019-08-10 13:00:00 32.5 25 Este 39 Este 0 1009.3 0.1 53
2019-08-10 12:00:00 33.4 23 Este 32 Este 0 1009.3 0.4 47
2019-08-10 11:00:00 33.9 8 Sudeste 18 Este 0 1009.2 1 41
2019-08-10 10:00:00 32.2 3 Noroeste 9 Oeste 0 1009.2 1.9 44
2019-08-10 09:00:00 29.3 6 Noroeste 11 Noroeste 0 1008.9 2.4 45
2019-08-10 08:00:00 27.2 5 Oeste 8 Oeste 0 1008.2 2.3 68
2019-08-10 07:00:00 27.4 4 Este 13 Este 0 1007.3 1.8 71
2019-08-10 06:00:00 27.4 8 Este 11 Este 0 1006.5 1.1 54
2019-08-10 05:00:00 27.1 5 Noroeste 15 Noroeste 0 1005.9 0.3 43
2019-08-10 04:00:00 27.9 13 Noroeste 15 Noroeste 0 1005.5 0.1 39
2019-08-10 03:00:00 28.5 11 Noroeste 15 Noroeste 0 1005.4 0.6 37
2019-08-10 02:00:00 30.1 2 Noroeste 13 Noroeste 0 1005.6 1 33
2019-08-10 01:00:00 31.2 6 Sudoeste 28 Oeste 0 1005.4 1.6 29
2019-08-10 00:00:00 32.1 18 Oeste 22 Oeste 0 1004.8 1.8 27
2019-08-09 23:00:00 33.1 16 Oeste 21 Oeste 0 1004.6 2 25
2019-08-09 22:00:00 35.6 16 Oeste 30 Oeste 0 1003.8 1.4 20
2019-08-09 21:00:00 38.4 20 Oeste 39 Oeste 0 1003 0.6 16
2019-08-09 20:00:00 40.3 35 Oeste 48 Oeste 0 1002.6 -0.1 14
2019-08-09 19:00:00 41.4 27 Oeste 42 Oeste 0 1002.4 -0.9 14
2019-08-09 18:00:00 42 27 Oeste 59 Sudoeste 0 1002.4 -1.3 14
2019-08-09 17:00:00 42 30 Oeste 50 Sudoeste 0 1002.7 -1.5 14
2019-08-09 16:00:00 41.5 30 Oeste 50 Sudoeste 0 1003.3 -1.1 14
2019-08-09 15:00:00 41.2 28 Sudoeste 46 Sudoeste 0 1003.7 -1.2 14
2019-08-09 14:00:00 40.1 25 Oeste 45 Oeste 0 1004.2 -1.1 16
2019-08-09 13:00:00 39.1 29 Sudoeste 46 Oeste 0 1004.4 -0.8 19
2019-08-09 12:00:00 36.9 9 Sudoeste 26 Sudoeste 0 1004.9 -0.2 20
2019-08-09 11:00:00 34.6 18 Sudoeste 26 Sudoeste 0 1005.3 0.2 21
2019-08-09 10:00:00 30.7 4 Oeste 13 Oeste 0 1005.2 0.3 37
2019-08-09 09:00:00 25.6 6 Sudoeste 11 Norte 0 1005.1 0.5 65
2019-08-09 08:00:00 21.8 6 Oeste 11 Oeste 0 1005.1 0.3 74
2019-08-09 07:00:00 21.5 5 Noroeste 11 Noroeste 0 1004.9 0.1 74
2019-08-09 06:00:00 21.8 9 Oeste 13 Noroeste 0 1004.6 -0.3 77
2019-08-09 05:00:00 22.9 4 Sudoeste 13 Noroeste 0 1004.8 0 75
2019-08-09 04:00:00 23.9 8 Noroeste 11 Noroeste 0 1004.8 -0.1 67
2019-08-09 03:00:00 24.6 6 Noroeste 11 Oeste 0 1004.9 0.1 72
2019-08-09 02:00:00 26.5 -- -- -- -- 0 1004.8 0.1 68
2019-08-09 01:00:00 26.9 3 Este 17 Nordeste 0 1004.9 0.9 69
2019-08-09 00:00:00 28.1 6 Este 17 Nordeste 0 1004.8 1.5 60
2019-08-08 23:00:00 28.8 10 Nordeste 33 Norte 0 1004.7 1.6 55
2019-08-08 22:00:00 29.1 12 Nordeste 22 Nordeste 0 1004 0.8 60
2019-08-08 21:00:00 29.8 13 Nordeste 32 Nordeste 0 1003.3 0 62
2019-08-08 20:00:00 31.2 17 Nordeste 26 Este 0 1003.1 -0.6 60
2019-08-08 19:00:00 34 18 Este 30 Este 0 1003.2 -1 32
2019-08-08 18:00:00 34 18 Este 30 Este 0 1003.3 -1 35
2019-08-08 17:00:00 32.8 22 Sudeste 33 Sudeste 0 1003.7 -0.9 47
2019-08-08 16:00:00 34 26 Sudeste 33 Sudeste 0 1004.2 -0.7 40
2019-08-08 15:00:00 36.1 23 Este 35 Este 0 1004.3 -1.2 26
2019-08-08 14:00:00 36.2 21 Este 32 Este 0 1004.6 -0.8 24
2019-08-08 13:00:00 37.4 6 Sudeste 18 Oeste 0 1004.9 -0.6 17
2019-08-08 12:00:00 35.4 7 Sudoeste 18 Oeste 0 1005.5 0 21
2019-08-08 11:00:00 33.1 5 Norte 13 Noroeste 0 1005.4 0.2 29
2019-08-08 10:00:00 30.2 11 Noroeste 18 Norte 0 1005.5 0.6 37
2019-08-08 09:00:00 27.3 10 Oeste 13 Sudoeste 0 1005.5 0.8 43
2019-08-08 08:00:00 24.6 6 Sudoeste 11 Sudoeste 0 1005.2 0.4 58
2019-08-08 07:00:00 24.1 6 Noroeste 13 Oeste 0 1004.9 0.2 78
2019-08-08 06:00:00 24 9 Sudoeste 13 Sudoeste 0 1004.7 -0.5 88
2019-08-08 05:00:00 24.4 10 Oeste 13 Oeste 0 1004.8 -0.2 87
2019-08-08 04:00:00 25.2 5 Sudoeste 15 Noroeste 0 1004.7 -0.5 87
2019-08-08 03:00:00 26.2 5 Oeste 9 Noroeste 0 1005.2 -0.4 85
2019-08-08 02:00:00 26.4 9 Noroeste 13 Norte 0 1005 -0.4 86
2019-08-08 01:00:00 26.8 6 Oeste 11 Sudoeste 0 1005.2 0.6 84
2019-08-08 00:00:00 26.8 8 Sur 11 Sur 0 1005.6 1.4 84
2019-08-07 23:00:00 27.2 6 Este 18 Nordeste 0 1005.4 2.1 82
2019-08-07 22:00:00 27.2 10 Este 21 Sudeste 0 1004.6 1.4 82
2019-08-07 21:00:00 27.5 12 Este 22 Este 0 1004.2 1.1 81
2019-08-07 20:00:00 28.5 15 Este 26 Nordeste 0 1003.3 0.5 75
2019-08-07 19:00:00 29.1 14 Este 28 Sudeste 0 1003.2 0.6 71
2019-08-07 18:00:00 29.8 21 Este 33 Este 0 1003.1 0.3 67
2019-08-07 17:00:00 31.4 25 Este 39 Este 0 1002.8 -0.1 60
2019-08-07 16:00:00 31.9 28 Este 39 Este 0 1002.6 -0.8 57
2019-08-07 15:00:00 35.3 29 Este 41 Este 0 1002.8 -0.9 46
2019-08-07 14:00:00 37 18 Sudeste 28 Sudeste 0 1002.9 -0.9 30
2019-08-07 13:00:00 35.1 16 Sudeste 24 Sudeste 0 1003.4 -0.2 35
2019-08-07 12:00:00 33.1 7 Sudoeste 21 Norte 0 1003.7 0.8 41
2019-08-07 11:00:00 30.5 5 Nordeste 9 Norte 0 1003.8 1.4 56
2019-08-07 10:00:00 27.8 6 Noroeste 11 Norte 0 1003.6 1.5 72
2019-08-07 09:00:00 26.2 5 Norte 13 Noroeste 0 1002.9 1.2 81
2019-08-07 08:00:00 23.5 6 Noroeste 9 Noroeste 0 1002.4 0.9 88
2019-08-07 07:00:00 23 3 Sudoeste 8 Sur 0 1002.1 0.4 88
2019-08-07 06:00:00 23.5 0 Calma 13 Noroeste 0 1001.7 -0.6 91
2019-08-07 05:00:00 23.9 10 Noroeste 13 Noroeste 0 1001.5 -1.1 90
2019-08-07 04:00:00 24.6 7 Oeste 11 Oeste 0 1001.7 -1.5 86
2019-08-07 03:00:00 25.4 6 Oeste 9 Oeste 0 1002.3 -1 85
2019-08-07 02:00:00 26.2 4 Este 13 Este 0 1002.6 -0.7 86
2019-08-07 01:00:00 26.3 2 Este 9 Este 0 1003.2 0.4 86
2019-08-07 00:00:00 26.3 8 Este 18 Este 0 1003.3 1.3 86
2019-08-06 23:00:00 26.6 11 Este 26 Este 0 1003.3 1.2 82
2019-08-06 22:00:00 27.3 10 Este 28 Nordeste 0 1002.8 0.7 76
2019-08-06 21:00:00 27.8 13 Nordeste 32 Nordeste 0 1002 -0.3 72
2019-08-06 20:00:00 28.6 13 Nordeste 24 Este 0 1002.1 -0.8 70
2019-08-06 19:00:00 29.3 16 Este 28 Este 0 1002.1 -1.2 69
2019-08-06 18:00:00 30.8 18 Este 30 Este 0 1002.3 -1.8 62
2019-08-06 17:00:00 31.4 18 Este 33 Este 0 1002.9 -1.9 61
2019-08-06 16:00:00 32.3 18 Este 32 Este 0 1003.3 -2 58
2019-08-06 15:00:00 32.2 18 Sudeste 30 Este 0 1004.1 -1.7 57
2019-08-06 14:00:00 31.3 16 Este 28 Este 0 1004.8 -0.9 61
2019-08-06 13:00:00 30.7 16 Este -- -- -- 1005.3 -0.3 65
2019-08-06 12:00:00 30.1 11 Este 22 Este 0 1005.8 0.4 68
2019-08-06 11:00:00 29.6 12 Este 18 Este 0 1005.7 0.5 68
2019-08-06 10:00:00 28.3 6 Sudeste 13 Sudeste 0 1005.6 0.7 71
2019-08-06 09:00:00 27.1 0 Calma 5 Sudoeste 0 1005.4 0.3 78
2019-08-06 08:00:00 25.3 5 Noroeste 11 Noroeste 0 1005.2 -0.2 84
2019-08-06 07:00:00 25.6 5 Oeste 9 Noroeste 0 1004.9 -0.8 81
2019-08-06 06:00:00 26.2 4 Noroeste 8 Noroeste 0 1005.1 -0.7 80
2019-08-06 05:00:00 26.3 2 Este 11 Nordeste 0 1005.4 -1 81
2019-08-06 04:00:00 26.4 5 Este 9 Nordeste 0 1005.7 -0.8 80
2019-08-06 03:00:00 26.4 6 Nordeste 11 Nordeste 0 1005.8 -0.7 81
2019-08-06 02:00:00 26.5 6 Este 26 Nordeste 0 1006.4 0.1 80
2019-08-06 01:00:00 26.6 8 Nordeste 15 Nordeste 0 1006.5 0.7 79
2019-08-06 00:00:00 26.8 11 Nordeste 24 Norte 0 1006.5 1.6 77
2019-08-05 23:00:00 26.8 12 Este 24 Norte 0 1006.3 1.4 80
2019-08-05 22:00:00 26.8 10 Este 24 Nordeste 0 1005.8 1.1 79
2019-08-05 21:00:00 27.2 13 Este 21 Nordeste 0 1004.9 0 76
2019-08-05 20:00:00 28.5 14 Este 28 Este 0 1004.9 -0.3 69
2019-08-05 19:00:00 29.1 19 Sudeste 30 Sudeste 0 1004.7 -1 67
2019-08-05 18:00:00 30.3 20 Sudeste 30 Sudeste 0 1004.9 -1.5 62
2019-08-05 17:00:00 31.6 18 Sudeste 26 Este 0 1005.2 -1.8 52
2019-08-05 16:00:00 31.8 15 Este 28 Este 0 1005.7 -1.9 49
2019-08-05 15:00:00 31.8 14 Este 30 Este 0 1006.4 -1.7 53
2019-08-05 14:00:00 31.8 11 Este 22 Sudeste 0 1007 -1.2 53
2019-08-05 13:00:00 31.1 11 Este 22 Este 0 1007.6 -0.5 55
2019-08-05 12:00:00 30.2 9 Sudeste 21 Sudeste 0 1008.1 0.5 57
2019-08-05 11:00:00 29.1 6 Sur 17 Sur 0 1008.2 1 62
2019-08-05 10:00:00 27.7 4 Sudoeste 8 Sudoeste 0 1008.1 1.3 67
2019-08-05 09:00:00 24.5 8 Noroeste 13 Noroeste 0 1007.6 1.1 59
2019-08-05 08:00:00 22.6 10 Noroeste 13 Noroeste 0 1007.2 0.3 69
2019-08-05 07:00:00 22.3 8 Noroeste 9 Noroeste 0 1006.8 -0.4 78
2019-08-05 06:00:00 22.5 5 Oeste 9 Noroeste 0 1006.5 -1.4 77
2019-08-05 05:00:00 23 6 Noroeste 15 Noroeste 0 1006.9 -1.1 73
2019-08-05 04:00:00 23.4 12 Noroeste 15 Noroeste 0 1007.2 -1 77
2019-08-05 03:00:00 24.4 8 Noroeste 13 Noroeste 0 1007.9 0 83
2019-08-05 02:00:00 25.6 8 Este 15 Nordeste 0 1008 0.4 83
2019-08-05 01:00:00 25.6 8 Nordeste 17 Nordeste 0 1008.2 1.5 83
2019-08-05 00:00:00 25.7 11 Nordeste 18 Nordeste 0 1007.9 1.9 82
2019-08-04 23:00:00 26 13 Nordeste 21 Este 0 1007.6 2.2 82
2019-08-04 22:00:00 26.5 11 Nordeste 30 Nordeste 0 1006.7 1.7 75
2019-08-04 21:00:00 27.3 17 Nordeste 35 Nordeste 0 1006 0.9 68
2019-08-04 20:00:00 28.6 17 Este 26 Este 0 1005.4 0.2 60
2019-08-04 19:00:00 29.8 16 Este 32 Nordeste 0 1005 -0.8 60
2019-08-04 18:00:00 30.9 18 Este 30 Este 0 1005.1 -1.3 57
2019-08-04 17:00:00 31.6 18 Este 30 Este 0 1005.2 -1.5 49
2019-08-04 16:00:00 32.4 16 Este 28 Este 0 1005.8 -1.4 48
2019-08-04 15:00:00 32 14 Este 32 Nordeste 0 1006.4 -0.8 46
2019-08-04 14:00:00 30.6 14 Nordeste 26 Nordeste 0 1006.7 -0.2 58
2019-08-04 13:00:00 30.1 15 Nordeste 26 Este 0 1007.2 -0.1 60
2019-08-04 12:00:00 30.3 12 Este 22 Este 0 1007.2 0 56
2019-08-04 11:00:00 29.3 5 Nordeste 15 Nordeste 0 1006.9 0.1 56
2019-08-04 10:00:00 27 6 Noroeste 13 Norte 0 1007.3 0.9 68
2019-08-04 09:00:00 24.6 7 Noroeste 11 Noroeste 0 1007.2 1.2 63
2019-08-04 08:00:00 21.9 7 Oeste 9 Noroeste 0 1006.8 0.9 75
2019-08-04 07:00:00 21.5 5 Noroeste 9 Noroeste 0 1006.4 0.1 77
2019-08-04 06:00:00 21.6 7 Oeste 9 Oeste 0 1006 -0.6 78
2019-08-04 05:00:00 -- 8 Oeste 11 Noroeste 0 1005.9 -0.9 --
2019-08-04 04:00:00 23.6 8 Noroeste 17 Norte 0 1006.3 -0.7 68
2019-08-04 03:00:00 23.8 11 Noroeste 17 Noroeste 0 1006.6 -0.3 70
2019-08-04 02:00:00 24.8 10 Noroeste 17 Nordeste 0 1006.8 0.1 72
2019-08-04 01:00:00 25.4 9 Norte 13 Norte 0 1007 1.2 71
2019-08-04 00:00:00 26 8 Nordeste 18 Nordeste 0 1006.9 1.8 67
2019-08-03 23:00:00 26.4 13 Nordeste 30 Nordeste 0 1006.7 1.6 64
2019-08-03 22:00:00 26.8 14 Nordeste 30 Este 0 1005.8 0.5 62
2019-08-03 21:00:00 27.7 11 Sudeste 22 Sudeste 0 1005.1 -0.8 52
2019-08-03 20:00:00 28.9 14 Este 30 Este 0 1005.1 -1.3 49
2019-08-03 19:00:00 30.1 16 Sudeste 30 Este 0 1005.3 -1.5 41
2019-08-03 18:00:00 30.3 20 Sudeste 32 Este 0 1005.9 -1.4 42
2019-08-03 17:00:00 30.3 21 Sudeste 30 Sudeste 0 1006.4 -1.3 49
2019-08-03 16:00:00 30.9 20 Sudeste 30 Sudeste 0 1006.8 -1.3 47
2019-08-03 15:00:00 31.1 17 Sudeste 33 Sudeste 0 1007.3 -1.1 47
2019-08-03 14:00:00 31.2 17 Sudeste 28 Sudeste 0 1007.7 -0.9 46
2019-08-03 13:00:00 31 14 Este 26 Este 0 1008.1 -0.4 46
2019-08-03 12:00:00 29.8 11 Este 28 Nordeste 0 1008.4 -0.1 52
2019-08-03 11:00:00 29.1 4 Sur 13 Sudeste 0 1008.6 0.4 54
2019-08-03 10:00:00 27 0 Calma 13 Noroeste 0 1008.5 0.7 63
2019-08-03 09:00:00 24.4 3 Oeste 9 Oeste 0 1008.5 1 70
2019-08-03 08:00:00 22.2 7 Oeste 13 Norte 0 1008.2 0.3 78
2019-08-03 07:00:00 21.2 8 Noroeste 11 Noroeste 0 1007.8 -0.4 82
2019-08-03 06:00:00 21.6 8 Noroeste 13 Noroeste 0 1007.5 -0.9 81
2019-08-03 05:00:00 22.3 8 Noroeste 13 Noroeste 0 1007.9 -0.9 79
2019-08-03 04:00:00 22.8 12 Noroeste 17 Noroeste 0 1008.2 -0.6 78
2019-08-03 03:00:00 23.2 9 Noroeste -- -- 0 1008.4 -0.2 82
2019-08-03 02:00:00 23.7 6 Oeste 9 Oeste 0 1008.8 0.4 80
2019-08-03 01:00:00 25 0 Calma -- -- -- 1008.8 1.2 78
2019-08-03 00:00:00 25.3 8 Este 11 Este 0 1008.6 1.6 77
2019-08-02 23:00:00 25.5 8 Este 28 Nordeste 0 1008.4 1.5 75
2019-08-02 22:00:00 25.9 9 Este 30 Nordeste 0 1007.6 0.9 72
2019-08-02 21:00:00 26.8 13 Nordeste 21 Este 0 1007 0.2 64
2019-08-02 20:00:00 28.2 15 Este 28 Este 0 1006.9 -0.4 57
2019-08-02 19:00:00 29.1 17 Este 26 Este 0 1006.7 -1 54
2019-08-02 18:00:00 29.6 18 Este 33 Este 0 1006.8 -1.2 49
2019-08-02 17:00:00 30.4 18 Este 33 Este 0 1007.3 -0.9 44
2019-08-02 16:00:00 31.1 17 Este 30 Este 0 1007.7 -0.4 40
2019-08-02 15:00:00 30.5 17 Sudeste 32 Este 0 1008 -0.1 44
2019-08-02 14:00:00 30.2 19 Sudeste 30 Sudeste 0 1008.2 0.2 41
2019-08-02 13:00:00 30.9 18 Este 28 Este 0 1008.1 0.4 27
2019-08-02 12:00:00 29.8 13 Sudeste 22 Sudeste 0 1008.1 0.5 50
2019-08-02 11:00:00 28.7 7 Sudeste 18 Este 0 1008 0.5 56
2019-08-02 10:00:00 27.3 3 Este 9 Oeste 0 1007.7 0.5 64
2019-08-02 09:00:00 24.4 8 Noroeste 13 Noroeste 0 1007.6 1 75
2019-08-02 08:00:00 22.2 5 Oeste 8 Oeste 0 1007.5 1.1 81
2019-08-02 07:00:00 21.7 6 Oeste 13 Noroeste 0 1007.2 0.5 83
2019-08-02 06:00:00 21.6 4 Oeste 9 Oeste 0 1006.6 0 84
2019-08-02 05:00:00 22.2 7 Oeste 9 Oeste 0 1006.4 -0.5 80
2019-08-02 04:00:00 23 7 Noroeste 9 Noroeste 0 1006.7 -0.1 79
2019-08-02 03:00:00 23.2 4 Noroeste 5 Oeste 0 1006.6 0 78
2019-08-02 02:00:00 23.7 5 Sudoeste 8 Sudoeste 0 1006.9 0.6 76
2019-08-02 01:00:00 24.1 4 Oeste 8 Oeste 0 1006.8 1.1 75
2019-08-02 00:00:00 -- 8 Oeste 9 Oeste 0 1006.6 1.6 --
2019-08-01 23:00:00 25.4 3 Este 22 Nordeste 0 1006.3 1.9 67
2019-08-01 22:00:00 25.6 8 Este 18 Nordeste 0 1005.7 1.6 69
2019-08-01 21:00:00 26.6 12 Este 32 Este 0 1005 0.6 63
2019-08-01 20:00:00 27.8 13 Este 22 Este 0 1004.4 -0.1 57
2019-08-01 19:00:00 28.3 12 Este 30 Este 0 1004.1 -1.7 57
2019-08-01 18:00:00 28.8 17 Este 30 Este 0 1004.4 -1.5 56
2019-08-01 17:00:00 29 19 Este 30 Este 0 1004.5 -1.7 55
2019-08-01 16:00:00 28.3 16 Este 33 Este 0 1005.8 -0.1 58
2019-08-01 15:00:00 28.9 19 Este 30 Este 0 1005.9 -0.3 59
2019-08-01 14:00:00 29.2 19 Este 32 Este 0 1006.2 -0.4 56
2019-08-01 13:00:00 29.9 11 Este 24 Este 0 1005.9 -0.8 51
2019-08-01 12:00:00 28.4 5 Nordeste 17 Noroeste 0 1006.2 -0.8 54
2019-08-01 11:00:00 28.2 8 Nordeste 22 Este 0 1006.6 0 55
2019-08-01 10:00:00 25.9 5 Noroeste 17 Noroeste 0 1006.7 0.1 65
2019-08-01 09:00:00 23.3 13 Noroeste 17 Noroeste 0 1007 0.3 79
2019-08-01 08:00:00 21.3 8 Noroeste 15 Noroeste 0 1006.6 -0.1 87
2019-08-01 07:00:00 20.3 6 Noroeste 11 Noroeste 0 1006.6 -0.8 90
2019-08-01 06:00:00 20.6 9 Oeste 15 Noroeste 0 1006.7 -1.4 89
2019-08-01 05:00:00 21.6 11 Noroeste 17 Noroeste 0 1006.7 -1 86
2019-08-01 04:00:00 22 10 Noroeste 13 Noroeste 0 1007.4 -0.9 85
2019-08-01 03:00:00 22.3 4 Oeste 13 Norte 0 1008.1 -0.9 83
2019-08-01 02:00:00 23.3 9 Norte 13 Norte 0 1007.7 -0.8 80
2019-08-01 01:00:00 23.8 7 Norte 15 Norte 0 1008.3 0.1 77
2019-08-01 00:00:00 24.3 6 Este 13 Este 0 1009 1.3 75
2019-07-31 23:00:00 24.8 11 Nordeste 22 Este 0 1008.5 1.3 73
2019-07-31 22:00:00 25 14 Este 28 Nordeste 0 1008.2 0.5 72
2019-07-31 21:00:00 25.8 16 Este 30 Este 0 1007.7 -0.8 66
2019-07-31 20:00:00 26.8 21 Este 33 Nordeste 0 1007.2 -2 65
2019-07-31 19:00:00 27.6 22 Este 32 Este 0 1007.7 -1.3 60
2019-07-31 18:00:00 28 22 Nordeste 35 Nordeste 0 1008.5 -1.3 57
2019-07-31 17:00:00 28.5 21 Este 35 Este 0 1009.2 -0.8 57
2019-07-31 16:00:00 28.1 24 Este 39 Este 0 1009 -1.6 58
2019-07-31 15:00:00 26.9 22 Este 35 Este 0 1009.8 -0.7 66
2019-07-31 14:00:00 25.3 17 Este 35 Este 0.1 1010 -0.1 79
2019-07-31 13:00:00 24.5 16 Nordeste 35 Este 0.2 1010.6 0.4 76
2019-07-31 12:00:00 28.1 27 Este 42 Este 0 1010.5 1.5 57
2019-07-31 11:00:00 27.5 26 Nordeste 41 Nordeste 0 1010.1 0.9 51
2019-07-31 10:00:00 26.5 24 Nordeste 37 Nordeste 0 1010.2 0.4 47
2019-07-31 09:00:00 25.9 25 Nordeste 37 Nordeste 0 1009 -0.4 58
2019-07-31 08:00:00 23.2 9 Norte 15 Noroeste 0 1009.2 -0.1 80
2019-07-31 07:00:00 22.9 10 Norte 13 Norte 0 1009.8 0.5 82
2019-07-31 06:00:00 23.6 10 Noroeste 13 Noroeste 0 1009.4 0.3 82
2019-07-31 05:00:00 23.7 6 Norte 13 Norte 0 1009.3 0.3 84
2019-07-31 04:00:00 23.9 7 Noroeste 11 Norte 0 1009.3 0.2 83
2019-07-31 03:00:00 24.4 8 Nordeste 15 Nordeste 0 1009.1 0.1 81
2019-07-31 02:00:00 24.8 10 Nordeste 22 Norte 0 1009 0.3 81
2019-07-31 01:00:00 25 10 Nordeste 17 Norte 0 1009.1 1.1 81
2019-07-31 00:00:00 25.1 10 Nordeste 24 Nordeste 0 1009 1.8 80
2019-07-30 23:00:00 25.3 12 Nordeste 32 Nordeste 0 1008.7 2 80
2019-07-30 22:00:00 25.5 11 Nordeste 18 Este 0 1008 1.5 79
2019-07-30 21:00:00 26.1 13 Nordeste 22 Nordeste 0 1007.2 0.5 75
2019-07-30 20:00:00 26.9 15 Este 24 Sudeste 0 1006.7 -0.3 70
2019-07-30 19:00:00 27.8 17 Este 28 Este 0 1006.5 -0.8 64
2019-07-30 18:00:00 28.8 21 Este 33 Este 0 1006.7 -0.8 59
2019-07-30 17:00:00 29.4 21 Este 33 Este 0 1007 -0.5 56
2019-07-30 16:00:00 29.9 23 Este 35 Este 0 1007.3 -0.3 54
2019-07-30 15:00:00 29.7 24 Este 39 Este 0 1007.5 0.1 53
2019-07-30 14:00:00 29.7 28 Este 39 Este 0 1007.5 0.2 53
2019-07-30 13:00:00 29.7 26 Este 42 Este 0 1007.6 0.5 52
2019-07-30 12:00:00 29.6 26 Este 37 Este 0 1007.4 0.8 53
2019-07-30 11:00:00 28.9 25 Nordeste 37 Nordeste 0 1007.3 1.4 53
2019-07-30 10:00:00 28.1 14 Norte 26 Norte 0 1007.1 2.1 58
2019-07-30 09:00:00 25.6 6 Norte 13 Norte 0 1006.6 2.6 68
2019-07-30 08:00:00 23.5 3 Oeste 11 Noroeste 0 1005.9 2.3 76
2019-07-30 07:00:00 22.3 8 Noroeste 9 Noroeste 0 1005 1.6 83
2019-07-30 06:00:00 22.5 7 Oeste 11 Noroeste 0 1004 0.6 82
2019-07-30 05:00:00 23.2 5 Noroeste 9 Noroeste 0 1003.6 0.1 82
2019-07-30 04:00:00 23.3 9 Noroeste 11 Noroeste 0 1003.4 0 81
2019-07-30 03:00:00 25.3 0 Calma 8 Nordeste 0 1003.4 0.5 73
2019-07-30 02:00:00 25.6 3 Este 17 Este 0 1003.5 0.8 74
2019-07-30 01:00:00 26 11 Nordeste 30 Nordeste 0 1003.4 1.4 73
2019-07-30 00:00:00 26.6 18 Nordeste 30 Nordeste 0 1002.9 1.9 70
2019-07-29 23:00:00 27.3 20 Nordeste 32 Nordeste 0 1002.7 2 65
2019-07-29 22:00:00 28.5 16 Nordeste 26 Nordeste 0 1002 1.4 58
2019-07-29 21:00:00 30 14 Nordeste 28 Nordeste 0 1001 0.1 55
2019-07-29 20:00:00 32.1 13 Este 26 Nordeste 0 1000.7 -0.7 45
2019-07-29 19:00:00 33 14 Este 24 Este 0 1000.6 -1.3 36
2019-07-29 18:00:00 33.6 18 Este 28 Este 0 1000.9 -1.2 34
2019-07-29 17:00:00 33.1 20 Este 32 Este 0 1001.4 -1.1 34
2019-07-29 16:00:00 32.4 21 Este 30 Sudeste 0 1001.9 -1.1 38
2019-07-29 15:00:00 31.2 21 Sudeste 33 Este 0 1002.1 -1.3 46
2019-07-29 14:00:00 31.4 21 Sudeste 28 Sudeste 0 1002.5 -1.1 49
2019-07-29 13:00:00 32.5 12 Sudeste 30 Sudeste 0 1003 -0.8 41
2019-07-29 12:00:00 31.1 10 Sudeste 21 Sudeste 0 1003.4 -0.5 39
2019-07-29 11:00:00 29.8 10 Sudeste 17 Sur 0 1003.6 0 43
2019-07-29 10:00:00 27.6 5 Sur 13 Sur 0 1003.8 0.5 51
2019-07-29 09:00:00 24.8 0 Calma 8 Noroeste 0 1003.9 0.9 60
2019-07-29 08:00:00 22.2 0 Calma 8 Sudoeste 0 1003.6 0.4 71
2019-07-29 07:00:00 20.3 5 Oeste 11 Oeste 0 1003.3 -0.1 83
2019-07-29 06:00:00 20.8 8 Noroeste 9 Oeste 0 1003 -0.5 81
2019-07-29 05:00:00 21.4 5 Oeste 8 Oeste 0 1003.2 -0.5 80
2019-07-29 04:00:00 21.6 7 Oeste 13 Noroeste 0 1003.4 -0.4 80
2019-07-29 03:00:00 22.4 10 Noroeste 15 Noroeste 0 1003.5 -0.1 78
2019-07-29 02:00:00 23.3 10 Norte 15 Norte 0 1003.7 0.1 74
2019-07-29 01:00:00 24.5 10 Norte 21 Nordeste 0 1003.8 1 65
2019-07-29 00:00:00 24.8 11 Norte 21 Nordeste 0 1003.6 1.4 69
2019-07-28 23:00:00 25.1 13 Norte 22 Norte 0 1003.6 1.8 72
2019-07-28 22:00:00 25.6 14 Nordeste 35 Nordeste 0 1002.8 1.1 71
2019-07-28 21:00:00 26.4 14 Nordeste 26 Este 0 1002.2 0.5 64
2019-07-28 20:00:00 27.3 14 Este 32 Este 0 1001.8 -0.2 58
2019-07-28 19:00:00 27.5 20 Este 35 Sudeste 0 1001.7 -0.7 53
2019-07-28 18:00:00 28.5 25 Sudeste 35 Este 0 1001.7 -0.9 44
2019-07-28 17:00:00 28.8 26 Sudeste 39 Sudeste 0 1002 -0.7 38
2019-07-28 16:00:00 28.5 27 Sudeste 39 Sudeste 0 1002.4 -0.3 38
2019-07-28 15:00:00 29.5 25 Sudeste 35 Este 0 1002.6 -0.3 33
2019-07-28 14:00:00 29.8 19 Sudeste 32 Este 0 1002.7 -0.4 29
2019-07-28 13:00:00 30.6 17 Este 28 Este 0 1002.7 -0.6 28
2019-07-28 12:00:00 29.5 5 Sudoeste 18 Sudoeste 0 1002.9 -0.2 26
2019-07-28 11:00:00 27.9 7 Sudoeste 21 Oeste 0 1003.1 0.5 29
2019-07-28 10:00:00 26 9 Noroeste 21 Noroeste 0 1003.3 1.2 34
2019-07-28 09:00:00 24 12 Noroeste 26 Noroeste 0 1003.1 1.5 40
2019-07-28 08:00:00 22.2 14 Noroeste 18 Noroeste 0 1002.6 0.9 47
2019-07-28 07:00:00 21.5 9 Noroeste 21 Noroeste 0 1002.1 0.8 50
2019-07-28 06:00:00 21.9 6 Oeste 21 Noroeste 0 1001.6 0.5 50
2019-07-28 05:00:00 22.7 8 Noroeste 21 Noroeste 0 1001.7 0.8 49
2019-07-28 04:00:00 24 18 Oeste 28 Oeste 0 1001.3 0.5 45
2019-07-28 03:00:00 24.5 15 Noroeste 24 Noroeste 0 1001.1 0.8 52
2019-07-28 02:00:00 25.9 14 Noroeste 24 Noroeste 0 1000.9 1.4 46
2019-07-28 01:00:00 26.4 9 Norte 24 Nordeste 0 1000.8 3 45
2019-07-28 00:00:00 26.4 17 Este 26 Este 0 1000.3 4.1 59
2019-07-27 23:00:00 27 19 Nordeste 37 Nordeste 0 999.5 4.2 59
2019-07-26 12:00:00 29.8 5 Este 13 Nordeste 0 1003.6 -0.7 51
2019-07-26 11:00:00 28.5 4 Sudeste 11 Sudeste 0 1003.9 -0.1 58
2019-07-26 10:00:00 27 8 Noroeste 13 Noroeste 0 1004.2 0.2 50
2019-07-26 09:00:00 25.4 9 Noroeste 13 Norte 0 1004.3 0.1 55
2019-07-26 08:00:00 23.3 4 Norte 9 Norte 0 1004 -0.4 63
2019-07-26 07:00:00 22 6 Noroeste 11 Noroeste 0 1004 -0.7 68
2019-07-26 06:00:00 21.8 8 Oeste 11 Oeste 0 1004.2 -1.1 72
2019-07-26 05:00:00 22.6 5 Noroeste 8 Noroeste 0 1004.4 -1.3 71
2019-07-26 04:00:00 23.5 4 Oeste -- -- -- 1004.7 -1.4 69
2019-07-26 03:00:00 24.2 8 Noroeste 13 Norte 0 1005.3 -1 63
2019-07-26 02:00:00 25.1 9 Noroeste 17 Noroeste 0 1005.7 -0.4 64
2019-07-26 01:00:00 26.6 10 Norte 17 Norte 0 1006.1 0.4 63
2019-07-26 00:00:00 27.3 9 Norte 21 Nordeste 0 1006.3 1.1 62